Time;durP1;ratioP1;P1;durP2;ratioP2;P2;SDS_P1;SDS_P2;PMS_P1;PMS_P2;Temp;Humidity;BMP_temperature;BMP_pressure;BME280_temperature;BME280_humidity;BME280_pressure;Samples;Min_cycle;Max_cycle;Signal;HPM_P1;HPM_P2
2021/01/15 00:01:35;;;;;;;28.60;15.27;;;;;;;;;;5096734;28;20357;-68
2021/01/15 00:04:01;;;;;;;33.03;16.17;;;;;;;;;;5095066;28;20027;-70
2021/01/15 00:06:28;;;;;;;22.58;12.07;;;;;;;;;;5095180;28;20031;-69
2021/01/15 00:08:54;;;;;;;24.10;12.15;;;;;;;;;;5096248;28;20028;-72
2021/01/15 00:11:31;;;;;;;24.50;11.40;;;;;;;;;;5095883;28;20024;-71
2021/01/15 00:14:01;;;;;;;24.23;12.40;;;;;;;;;;5095800;28;20473;-71
2021/01/15 00:16:30;;;;;;;22.40;13.00;;;;;;;;;;5095806;28;20310;-68
2021/01/15 00:18:57;;;;;;;23.52;11.90;;;;;;;;;;5096055;28;20085;-70
2021/01/15 00:21:25;;;;;;;23.47;12.10;;;;;;;;;;5094906;28;20024;-72
2021/01/15 00:23:52;;;;;;;20.67;10.23;;;;;;;;;;5094816;28;20409;-73
2021/01/15 00:26:19;;;;;;;22.08;11.43;;;;;;;;;;5095942;28;20349;-70
2021/01/15 00:28:46;;;;;;;25.83;12.70;;;;;;;;;;5094712;28;20028;-69
2021/01/15 00:31:12;;;;;;;24.55;12.75;;;;;;;;;;5095686;28;20048;-69
2021/01/15 00:33:38;;;;;;;24.30;10.95;;;;;;;;;;5094607;28;20027;-70
2021/01/15 00:36:05;;;;;;;17.60;9.18;;;;;;;;;;5095808;28;20028;-70
2021/01/15 00:38:31;;;;;;;17.08;9.90;;;;;;;;;;5094496;28;20409;-69
2021/01/15 00:40:58;;;;;;;21.40;9.95;;;;;;;;;;5095987;28;20458;-70
2021/01/15 00:43:24;;;;;;;18.75;9.93;;;;;;;;;;5095730;28;20031;-70
2021/01/15 00:45:50;;;;;;;15.07;9.27;;;;;;;;;;5094593;28;20043;-70
2021/01/15 00:48:16;;;;;;;17.55;9.10;;;;;;;;;;5094515;28;20145;-67
2021/01/15 00:50:42;;;;;;;17.85;9.95;;;;;;;;;;5095505;28;20385;-72
2021/01/15 00:53:09;;;;;;;17.80;10.80;;;;;;;;;;5094949;28;20032;-70
2021/01/15 00:55:35;;;;;;;22.88;11.25;;;;;;;;;;5095961;28;20099;-71
2021/01/15 00:58:02;;;;;;;21.05;11.50;;;;;;;;;;5095694;28;20066;-71
2021/01/15 01:00:28;;;;;;;;;;;;;;;;;;5095754;28;20399;-71
2021/01/15 01:02:54;;;;;;;19.73;10.25;;;;;;;;;;5094021;28;19904;-68
2021/01/15 01:05:21;;;;;;;18.25;9.38;;;;;;;;;;5094703;28;20051;-69
2021/01/15 01:07:48;;;;;;;16.63;8.98;;;;;;;;;;5094237;28;20346;-69
2021/01/15 01:10:14;;;;;;;22.25;9.50;;;;;;;;;;5094331;28;20456;-69
2021/01/15 01:12:41;;;;;;;18.30;9.82;;;;;;;;;;5095125;28;20026;-71
2021/01/15 01:15:08;;;;;;;17.73;9.25;;;;;;;;;;5095870;28;20026;-70
2021/01/15 01:17:35;;;;;;;19.25;10.10;;;;;;;;;;5095311;28;20020;-68
2021/01/15 01:20:01;;;;;;;18.73;8.90;;;;;;;;;;5094890;28;20353;-70
2021/01/15 01:22:27;;;;;;;21.65;12.02;;;;;;;;;;5095220;28;20031;-69
2021/01/15 01:24:53;;;;;;;30.25;12.60;;;;;;;;;;5093393;28;20047;-68
2021/01/15 01:27:19;;;;;;;22.20;11.35;;;;;;;;;;5092939;28;20065;-70
2021/01/15 01:29:45;;;;;;;24.98;11.05;;;;;;;;;;5093483;28;20108;-71
2021/01/15 01:32:11;;;;;;;22.67;11.32;;;;;;;;;;5093281;28;20046;-70
2021/01/15 01:34:37;;;;;;;26.75;11.65;;;;;;;;;;5094383;28;20024;-71
2021/01/15 01:37:03;;;;;;;21.77;11.38;;;;;;;;;;5093616;28;20081;-68
2021/01/15 01:39:29;;;;;;;26.50;13.48;;;;;;;;;;5094680;28;20016;-67
2021/01/15 01:41:55;;;;;;;25.58;12.20;;;;;;;;;;5094231;28;20409;-70
2021/01/15 01:44:21;;;;;;;24.83;11.00;;;;;;;;;;5094835;28;20016;-68
2021/01/15 01:46:48;;;;;;;25.42;11.25;;;;;;;;;;5093069;28;20028;-69
2021/01/15 01:49:14;;;;;;;22.75;10.80;;;;;;;;;;5093138;28;20552;-69
2021/01/15 01:51:42;;;;;;;22.35;11.65;;;;;;;;;;5093374;28;20024;-69
2021/01/15 01:54:08;;;;;;;18.60;8.70;;;;;;;;;;5094230;28;20016;-68
2021/01/15 01:56:34;;;;;;;18.20;8.00;;;;;;;;;;5094008;28;20077;-68
2021/01/15 01:59:00;;;;;;;18.08;9.38;;;;;;;;;;5093274;28;20415;-69
2021/01/15 02:01:26;;;;;;;19.23;8.77;;;;;;;;;;5094210;28;20021;-69
2021/01/15 02:04:02;;;;;;;17.17;8.60;;;;;;;;;;5094461;28;20024;-68
2021/01/15 02:06:28;;;;;;;18.95;9.07;;;;;;;;;;5092872;28;20533;-68
2021/01/15 02:08:54;;;;;;;20.98;10.15;;;;;;;;;;5092573;28;20440;-69
2021/01/15 02:11:30;;;;;;;15.15;9.07;;;;;;;;;;5094033;28;20031;-70
2021/01/15 02:14:02;;;;;;;15.73;9.77;;;;;;;;;;5094038;28;20110;-67
2021/01/15 02:16:29;;;;;;;18.23;8.43;;;;;;;;;;5093839;28;20371;-70
2021/01/15 02:18:58;;;;;;;15.82;7.82;;;;;;;;;;5093947;28;20016;-69
2021/01/15 02:21:30;;;;;;;21.52;9.63;;;;;;;;;;5093913;28;20016;-71
2021/01/15 02:24:01;;;;;;;17.20;9.48;;;;;;;;;;5093613;28;20034;-69
2021/01/15 02:26:39;;;;;;;17.27;8.60;;;;;;;;;;5092793;28;20035;-70
2021/01/15 02:29:05;;;;;;;15.32;8.60;;;;;;;;;;5092654;28;20357;-70
2021/01/15 02:31:43;;;;;;;17.63;8.32;;;;;;;;;;5092103;28;20044;-71
2021/01/15 02:34:09;;;;;;;18.35;8.95;;;;;;;;;;5094027;28;20102;-69
2021/01/15 02:36:44;;;;;;;18.50;8.95;;;;;;;;;;5093274;28;20035;-69
2021/01/15 02:39:10;;;;;;;23.73;11.02;;;;;;;;;;5093931;28;20093;-72
2021/01/15 02:41:37;;;;;;;18.27;9.60;;;;;;;;;;5093990;28;20052;-70
2021/01/15 02:44:06;;;;;;;17.95;9.85;;;;;;;;;;5093673;28;20031;-68
2021/01/15 02:46:49;;;;;;;15.07;8.23;;;;;;;;;;5092315;28;20024;-68
2021/01/15 02:49:16;;;;;;;15.70;7.53;;;;;;;;;;5093446;28;20028;-69
2021/01/15 02:51:42;;;;;;;16.48;8.27;;;;;;;;;;5092389;28;20027;-68
2021/01/15 02:54:08;;;;;;;16.83;8.70;;;;;;;;;;5093595;28;20016;-68
2021/01/15 02:56:35;;;;;;;12.45;7.85;;;;;;;;;;5094077;28;20035;-69
2021/01/15 02:59:01;;;;;;;15.40;8.50;;;;;;;;;;5093800;28;20035;-70
2021/01/15 03:01:31;;;;;;;14.70;7.95;;;;;;;;;;5092285;28;20513;-69
2021/01/15 03:04:23;;;;;;;16.27;8.38;;;;;;;;;;5092473;28;20020;-70
2021/01/15 03:06:56;;;;;;;15.27;7.57;;;;;;;;;;5089006;28;20043;-69
2021/01/15 03:09:23;;;;;;;14.15;8.52;;;;;;;;;;5093219;28;20037;-70
2021/01/15 03:11:51;;;;;;;15.47;7.87;;;;;;;;;;5093385;28;20031;-69
2021/01/15 03:14:17;;;;;;;14.73;8.55;;;;;;;;;;5093367;28;20293;-69
2021/01/15 03:16:44;;;;;;;13.10;8.00;;;;;;;;;;5093465;28;20470;-71
2021/01/15 03:19:12;;;;;;;20.77;9.65;;;;;;;;;;5091846;28;20165;-69
2021/01/15 03:21:39;;;;;;;19.35;9.05;;;;;;;;;;5092357;28;20021;-68
2021/01/15 03:24:06;;;;;;;18.63;10.65;;;;;;;;;;5092592;28;20460;-71
2021/01/15 03:26:32;;;;;;;14.70;6.95;;;;;;;;;;5093447;28;20020;-69
2021/01/15 03:28:58;;;;;;;14.88;8.55;;;;;;;;;;5092230;28;20456;-69
2021/01/15 03:31:24;;;;;;;16.15;8.68;;;;;;;;;;5091712;28;20044;-69
2021/01/15 03:33:51;;;;;;;21.90;9.05;;;;;;;;;;5091939;28;20054;-70
2021/01/15 03:36:17;;;;;;;24.02;11.00;;;;;;;;;;5093464;28;20031;-70
2021/01/15 03:38:43;;;;;;;18.75;9.93;;;;;;;;;;5092105;28;20024;-71
2021/01/15 03:41:10;;;;;;;20.38;10.98;;;;;;;;;;5092830;28;20027;-69
2021/01/15 03:43:36;;;;;;;17.63;8.57;;;;;;;;;;5091769;28;20035;-69
2021/01/15 03:46:02;;;;;;;17.95;9.50;;;;;;;;;;5092043;28;20019;-68
2021/01/15 03:48:28;;;;;;;22.35;11.18;;;;;;;;;;5093211;28;20020;-70
2021/01/15 03:50:55;;;;;;;21.13;10.70;;;;;;;;;;5095195;28;20030;-70
2021/01/15 03:53:21;;;;;;;22.23;12.23;;;;;;;;;;5096201;28;20024;-68
2021/01/15 03:55:50;;;;;;;20.50;11.27;;;;;;;;;;5095398;28;20028;-69
2021/01/15 03:58:16;;;;;;;18.13;11.57;;;;;;;;;;5096545;28;20024;-68
2021/01/15 04:00:42;;;;;;;17.30;9.10;;;;;;;;;;5095899;28;20024;-69
2021/01/15 04:03:08;;;;;;;15.18;9.18;;;;;;;;;;5097123;28;20051;-70
2021/01/15 04:05:35;;;;;;;18.80;8.88;;;;;;;;;;5096504;28;20028;-70
2021/01/15 04:08:01;;;;;;;14.73;9.00;;;;;;;;;;5095027;28;20028;-70
2021/01/15 04:10:27;;;;;;;18.42;9.80;;;;;;;;;;5094960;28;20024;-71
2021/01/15 04:12:53;;;;;;;18.23;10.20;;;;;;;;;;5095327;28;20024;-71
2021/01/15 04:15:19;;;;;;;16.83;9.00;;;;;;;;;;5096509;28;20024;-69
2021/01/15 04:17:46;;;;;;;21.25;11.43;;;;;;;;;;5096788;28;20047;-68
2021/01/15 04:20:13;;;;;;;29.15;12.82;;;;;;;;;;5096462;28;20073;-69
2021/01/15 04:22:40;;;;;;;24.65;13.27;;;;;;;;;;5096181;28;20039;-71
2021/01/15 04:25:07;;;;;;;22.70;11.45;;;;;;;;;;5094916;28;20409;-69
2021/01/15 04:27:34;;;;;;;21.50;11.05;;;;;;;;;;5076004;28;20067;-70
2021/01/15 04:30:01;;;;;;;25.33;13.90;;;;;;;;;;5075453;28;20074;-70
2021/01/15 04:32:28;;;;;;;22.58;11.00;;;;;;;;;;5087568;28;20352;-69
2021/01/15 04:34:54;;;;;;;21.48;10.52;;;;;;;;;;5096447;28;20016;-69
2021/01/15 04:37:20;;;;;;;23.13;10.88;;;;;;;;;;5094158;28;20023;-70
2021/01/15 04:39:46;;;;;;;16.80;9.23;;;;;;;;;;5095669;28;20052;-71
2021/01/15 04:42:14;;;;;;;18.17;9.40;;;;;;;;;;5095134;28;20040;-70
2021/01/15 04:44:40;;;;;;;18.92;10.00;;;;;;;;;;5094311;28;20062;-69
2021/01/15 04:47:07;;;;;;;18.48;11.05;;;;;;;;;;5094077;28;20044;-69
2021/01/15 04:49:35;;;;;;;24.85;11.48;;;;;;;;;;5095169;28;20027;-71
2021/01/15 04:52:02;;;;;;;24.40;11.77;;;;;;;;;;5095483;28;20032;-71
2021/01/15 04:54:35;;;;;;;20.63;11.25;;;;;;;;;;5095463;28;20141;-69
2021/01/15 04:57:04;;;;;;;26.50;11.75;;;;;;;;;;5094165;28;20035;-70
2021/01/15 04:59:33;;;;;;;25.15;11.32;;;;;;;;;;5095183;28;20028;-70
2021/01/15 05:02:06;;;;;;;22.63;11.15;;;;;;;;;;5094391;28;20031;-71
2021/01/15 05:04:32;;;;;;;24.42;12.75;;;;;;;;;;5094676;28;20020;-69
2021/01/15 05:07:02;;;;;;;27.50;14.13;;;;;;;;;;5096246;28;20090;-71
2021/01/15 05:09:37;;;;;;;24.90;12.38;;;;;;;;;;5093227;28;20106;-71
2021/01/15 05:12:06;;;;;;;28.83;12.55;;;;;;;;;;5092070;28;20134;-70
2021/01/15 05:14:33;;;;;;;29.60;13.73;;;;;;;;;;5094450;28;20449;-71
2021/01/15 05:17:01;;;;;;;36.67;15.52;;;;;;;;;;5094775;28;20020;-69
2021/01/15 05:19:27;;;;;;;;;;;;;;;;;;5096863;28;20095;-70
2021/01/15 05:21:53;;;;;;;37.83;16.65;;;;;;;;;;5095896;28;19951;-70
2021/01/15 05:24:19;;;;;;;31.08;15.13;;;;;;;;;;5095278;28;20095;-70
2021/01/15 05:26:45;;;;;;;31.00;14.82;;;;;;;;;;5095718;28;20035;-72
2021/01/15 05:29:11;;;;;;;26.05;13.77;;;;;;;;;;5095213;28;20442;-70
2021/01/15 05:31:51;;;;;;;23.95;13.05;;;;;;;;;;5096080;28;20051;-70
2021/01/15 05:34:18;;;;;;;27.17;13.82;;;;;;;;;;5095741;28;20361;-72
2021/01/15 05:36:44;;;;;;;27.63;14.00;;;;;;;;;;5096559;28;20107;-72
2021/01/15 05:39:11;;;;;;;25.58;14.10;;;;;;;;;;5094751;28;20125;-70
2021/01/15 05:41:37;;;;;;;40.97;15.13;;;;;;;;;;5095897;28;20038;-72
2021/01/15 05:44:04;;;;;;;38.35;17.70;;;;;;;;;;5096858;28;20028;-71
2021/01/15 05:46:30;;;;;;;49.78;20.17;;;;;;;;;;5094429;28;20039;-71
2021/01/15 05:48:57;;;;;;;45.28;19.08;;;;;;;;;;5093446;28;20496;-70
2021/01/15 05:51:23;;;;;;;55.38;22.80;;;;;;;;;;5093264;28;20031;-69
2021/01/15 05:53:49;;;;;;;49.90;18.50;;;;;;;;;;5093094;28;20028;-71
2021/01/15 05:56:16;;;;;;;54.38;19.10;;;;;;;;;;5092886;28;20542;-71
2021/01/15 05:59:00;;;;;;;60.85;19.75;;;;;;;;;;5093313;28;20020;-68
2021/01/15 06:01:36;;;;;;;58.10;19.95;;;;;;;;;;5094030;28;20028;-67
2021/01/15 06:04:03;;;;;;;46.58;22.33;;;;;;;;;;5094332;28;20364;-69
2021/01/15 06:06:30;;;;;;;49.30;21.52;;;;;;;;;;5094320;28;20028;-66
2021/01/15 06:08:56;;;;;;;39.50;21.75;;;;;;;;;;5093698;28;20511;-68
2021/01/15 06:11:23;;;;;;;48.35;23.70;;;;;;;;;;5092808;28;20039;-67
2021/01/15 06:13:49;;;;;;;48.10;25.23;;;;;;;;;;5093179;28;20070;-68
2021/01/15 06:16:19;;;;;;;44.13;21.70;;;;;;;;;;5094251;28;20041;-70
2021/01/15 06:18:58;;;;;;;37.42;18.38;;;;;;;;;;5092705;28;20364;-67
2021/01/15 06:21:34;;;;;;;35.03;18.40;;;;;;;;;;5092700;28;20019;-67
2021/01/15 06:24:07;;;;;;;31.05;14.52;;;;;;;;;;5093908;28;20020;-67
2021/01/15 06:26:35;;;;;;;29.85;15.27;;;;;;;;;;5092840;28;20027;-68
2021/01/15 06:29:11;;;;;;;29.92;17.42;;;;;;;;;;5093850;28;20023;-68
2021/01/15 06:31:50;;;;;;;32.45;14.63;;;;;;;;;;5093543;28;20048;-69
2021/01/15 06:34:17;;;;;;;29.15;14.77;;;;;;;;;;5094008;28;20020;-69
2021/01/15 06:36:53;;;;;;;38.40;20.23;;;;;;;;;;5093795;28;20052;-67
2021/01/15 06:39:20;;;;;;;38.58;20.15;;;;;;;;;;5092542;28;20028;-68
2021/01/15 06:41:46;;;;;;;46.93;21.77;;;;;;;;;;5093685;28;20016;-69
2021/01/15 06:44:17;;;;;;;37.58;20.00;;;;;;;;;;5094322;28;20024;-71
2021/01/15 06:46:44;;;;;;;34.72;17.77;;;;;;;;;;5094727;28;20032;-72
2021/01/15 06:49:17;;;;;;;36.15;16.25;;;;;;;;;;5092528;28;20036;-72
2021/01/15 06:51:53;;;;;;;34.25;15.45;;;;;;;;;;5094041;28;20095;-69
2021/01/15 06:54:23;;;;;;;30.88;13.80;;;;;;;;;;5092944;28;20454;-69
2021/01/15 06:56:52;;;;;;;32.83;16.70;;;;;;;;;;5091653;28;20036;-70
2021/01/15 06:59:26;;;;;;;39.15;18.30;;;;;;;;;;5072264;28;20364;-70
2021/01/15 07:02:08;;;;;;;29.35;14.80;;;;;;;;;;5073684;28;20513;-69
2021/01/15 07:04:41;;;;;;;38.33;17.35;;;;;;;;;;5072031;28;20032;-70
2021/01/15 07:07:16;;;;;;;35.53;16.98;;;;;;;;;;5073540;28;20035;-70
2021/01/15 07:09:43;;;;;;;34.50;19.02;;;;;;;;;;5088668;28;20031;-68
2021/01/15 07:12:11;;;;;;;36.65;16.15;;;;;;;;;;5092367;28;20078;-70
2021/01/15 07:14:49;;;;;;;31.25;14.57;;;;;;;;;;5093375;28;20040;-69
2021/01/15 07:17:28;;;;;;;29.35;15.50;;;;;;;;;;5092003;28;20024;-69
2021/01/15 07:20:03;;;;;;;30.42;16.48;;;;;;;;;;5092059;28;20070;-70
2021/01/15 07:22:34;;;;;;;41.78;20.05;;;;;;;;;;5092487;28;20480;-71
2021/01/15 07:25:03;;;;;;;33.65;16.67;;;;;;;;;;5095969;28;20066;-68
2021/01/15 07:27:29;;;;;;;45.10;21.77;;;;;;;;;;5097543;28;20108;-71
2021/01/15 07:29:56;;;;;;;50.70;21.15;;;;;;;;;;5097090;28;20020;-69
2021/01/15 07:32:23;;;;;;;90.85;34.63;;;;;;;;;;5095688;28;20067;-74
2021/01/15 07:34:49;;;;;;;;;;;;;;;;;;5097102;28;20051;-74
2021/01/15 07:37:19;;;;;;;66.72;26.60;;;;;;;;;;5095739;28;19922;-72
2021/01/15 07:40:16;;;;;;;84.45;31.67;;;;;;;;;;5095682;28;20030;-71
2021/01/15 07:42:49;;;;;;;69.07;28.90;;;;;;;;;;5080203;28;20114;-71
2021/01/15 07:45:27;;;;;;;47.70;24.55;;;;;;;;;;5076527;28;20017;-70
2021/01/15 07:47:54;;;;;;;87.38;35.08;;;;;;;;;;5075400;28;20032;-68
2021/01/15 07:50:30;;;;;;;94.03;35.30;;;;;;;;;;5076532;28;20028;-68
2021/01/15 07:53:15;;;;;;;100.65;36.25;;;;;;;;;;5088455;28;20468;-70
2021/01/15 07:55:44;;;;;;;100.50;37.30;;;;;;;;;;5096954;28;20123;-71
2021/01/15 07:58:10;;;;;;;93.50;36.08;;;;;;;;;;5096417;28;20107;-71
2021/01/15 08:00:36;;;;;;;228.25;70.90;;;;;;;;;;5096255;28;20016;-70
2021/01/15 08:03:03;;;;;;;112.70;41.53;;;;;;;;;;5094954;28;20047;-70
2021/01/15 08:05:29;;;;;;;126.78;48.92;;;;;;;;;;5093775;28;20019;-69
2021/01/15 08:08:08;;;;;;;96.53;37.38;;;;;;;;;;5095264;28;20073;-71
2021/01/15 08:10:44;;;;;;;80.15;32.58;;;;;;;;;;5092424;28;20413;-70
2021/01/15 08:13:17;;;;;;;91.22;32.75;;;;;;;;;;5092192;28;20429;-72
2021/01/15 08:15:43;;;;;;;101.43;36.35;;;;;;;;;;5092649;28;20023;-70
2021/01/15 08:18:09;;;;;;;257.95;73.85;;;;;;;;;;5094787;28;20016;-69
2021/01/15 08:20:36;;;;;;;104.70;33.53;;;;;;;;;;5094519;28;20016;-71
2021/01/15 08:23:03;;;;;;;93.05;35.20;;;;;;;;;;5093827;28;20070;-71
2021/01/15 08:25:30;;;;;;;57.67;26.15;;;;;;;;;;5094103;28;20016;-70
2021/01/15 08:27:56;;;;;;;57.35;24.50;;;;;;;;;;5094632;28;20086;-69
2021/01/15 08:30:23;;;;;;;61.53;23.80;;;;;;;;;;5094816;28;20052;-71
2021/01/15 08:32:50;;;;;;;51.92;20.27;;;;;;;;;;5095045;28;20020;-70
2021/01/15 08:35:23;;;;;;;47.55;18.80;;;;;;;;;;5095259;28;20020;-71
2021/01/15 08:37:57;;;;;;;42.50;19.08;;;;;;;;;;5096206;28;20035;-70
2021/01/15 08:40:27;;;;;;;39.38;17.73;;;;;;;;;;5094495;28;20023;-70
2021/01/15 08:42:58;;;;;;;34.85;16.77;;;;;;;;;;5094763;28;20107;-70
2021/01/15 08:45:25;;;;;;;49.95;20.38;;;;;;;;;;5094751;28;20016;-69
2021/01/15 08:47:51;;;;;;;42.17;19.25;;;;;;;;;;5093662;28;20041;-70
2021/01/15 08:50:18;;;;;;;49.80;22.67;;;;;;;;;;5094605;28;20114;-71
2021/01/15 08:52:44;;;;;;;49.08;22.65;;;;;;;;;;5095855;28;20017;-71
2021/01/15 08:55:11;;;;;;;49.63;22.58;;;;;;;;;;5095813;28;20020;-69
2021/01/15 08:57:37;;;;;;;41.55;21.23;;;;;;;;;;5095487;28;20020;-69
2021/01/15 09:00:14;;;;;;;43.95;20.67;;;;;;;;;;5093824;28;20027;-71
2021/01/15 09:02:41;;;;;;;39.90;20.45;;;;;;;;;;5094087;28;20020;-71
2021/01/15 09:05:09;;;;;;;36.95;19.17;;;;;;;;;;5094372;28;20012;-69
2021/01/15 09:07:45;;;;;;;41.17;22.00;;;;;;;;;;5094769;28;20032;-69
2021/01/15 09:10:13;;;;;;;39.72;22.75;;;;;;;;;;5095215;28;20086;-68
2021/01/15 09:12:46;;;;;;;51.75;23.38;;;;;;;;;;5095748;28;20085;-70
2021/01/15 09:15:25;;;;;;;34.05;20.20;;;;;;;;;;5094090;28;20031;-71
2021/01/15 09:17:52;;;;;;;41.28;22.27;;;;;;;;;;5095126;28;20024;-72
2021/01/15 09:20:18;;;;;;;48.92;24.88;;;;;;;;;;5095327;28;20012;-69
2021/01/15 09:22:45;;;;;;;40.00;22.50;;;;;;;;;;5095493;28;20046;-72
2021/01/15 09:25:12;;;;;;;37.53;20.52;;;;;;;;;;5093935;28;20047;-71
2021/01/15 09:27:38;;;;;;;;;;;;;;;;;;5095402;28;20030;-71
2021/01/15 09:30:05;;;;;;;37.10;20.67;;;;;;;;;;5092904;28;19900;-72
2021/01/15 09:32:31;;;;;;;39.58;21.75;;;;;;;;;;5093733;28;20059;-70
2021/01/15 09:34:57;;;;;;;34.53;20.67;;;;;;;;;;5094948;28;20065;-70
2021/01/15 09:37:23;;;;;;;34.22;18.60;;;;;;;;;;5094651;28;20073;-70
2021/01/15 09:39:49;;;;;;;36.40;18.77;;;;;;;;;;5094814;28;20094;-70
2021/01/15 09:42:15;;;;;;;36.45;19.80;;;;;;;;;;5094914;28;20043;-70
2021/01/15 09:44:41;;;;;;;39.00;20.63;;;;;;;;;;5094547;28;20058;-69
2021/01/15 09:47:08;;;;;;;35.08;21.20;;;;;;;;;;5093851;28;20038;-72
2021/01/15 09:49:34;;;;;;;35.20;19.00;;;;;;;;;;5094504;28;20389;-71
2021/01/15 09:52:01;;;;;;;39.75;21.23;;;;;;;;;;5093105;28;20118;-70
2021/01/15 09:54:27;;;;;;;;;;;;;;;;;;5093766;28;20053;-70
2021/01/15 09:56:54;;;;;;;30.73;16.60;;;;;;;;;;5094602;28;20294;-72
2021/01/15 09:59:20;;;;;;;33.40;17.95;;;;;;;;;;5094145;28;20107;-70
2021/01/15 10:01:47;;;;;;;35.25;18.95;;;;;;;;;;5094449;28;20023;-71
2021/01/15 10:04:13;;;;;;;45.33;21.05;;;;;;;;;;5093445;28;20065;-69
2021/01/15 10:06:40;;;;;;;39.88;20.13;;;;;;;;;;5093998;28;20024;-69
2021/01/15 10:09:07;;;;;;;40.63;21.90;;;;;;;;;;5094468;28;20073;-70
2021/01/15 10:11:35;;;;;;;40.42;19.27;;;;;;;;;;5093091;28;20070;-69
2021/01/15 10:14:03;;;;;;;38.65;19.75;;;;;;;;;;5093136;28;20066;-70
2021/01/15 10:16:28;;;;;;;;;;;;;;;;;;5093463;28;20468;-70
2021/01/15 10:18:56;;;;;;;36.72;17.98;;;;;;;;;;5094473;28;19900;-70
2021/01/15 10:21:27;;;;;;;44.58;19.73;;;;;;;;;;5094289;28;20012;-71
2021/01/15 10:23:54;;;;;;;30.20;16.55;;;;;;;;;;5093761;28;20016;-71
2021/01/15 10:26:21;;;;;;;35.85;19.45;;;;;;;;;;5092498;28;20020;-70
2021/01/15 10:28:47;;;;;;;34.35;18.35;;;;;;;;;;5094442;28;20012;-72
2021/01/15 10:31:13;;;;;;;38.38;19.35;;;;;;;;;;5094352;28;20044;-71
2021/01/15 10:33:39;;;;;;;38.50;20.42;;;;;;;;;;5092528;28;20111;-67
2021/01/15 10:36:09;;;;;;;35.20;18.60;;;;;;;;;;5092788;28;20107;-70
2021/01/15 10:38:36;;;;;;;38.65;20.40;;;;;;;;;;5092765;28;20035;-70
2021/01/15 10:41:02;;;;;;;45.08;24.60;;;;;;;;;;5092433;28;20520;-68
2021/01/15 10:43:28;;;;;;;34.95;18.95;;;;;;;;;;5093924;28;20399;-69
2021/01/15 10:45:54;;;;;;;33.83;18.02;;;;;;;;;;5094158;28;20073;-68
2021/01/15 10:48:21;;;;;;;30.02;16.73;;;;;;;;;;5092818;28;20024;-71
2021/01/15 10:50:47;;;;;;;31.55;16.55;;;;;;;;;;5092205;28;20095;-70
2021/01/15 10:53:13;;;;;;;31.45;17.23;;;;;;;;;;5091205;28;20085;-70
2021/01/15 10:55:39;;;;;;;30.40;16.58;;;;;;;;;;5091036;28;20012;-69
2021/01/15 10:58:05;;;;;;;45.65;23.27;;;;;;;;;;5092322;28;20504;-72
2021/01/15 11:00:32;;;;;;;39.80;21.13;;;;;;;;;;5096188;28;20023;-70
2021/01/15 11:02:58;;;;;;;36.10;21.38;;;;;;;;;;5095356;28;20088;-68
2021/01/15 11:05:24;;;;;;;41.20;23.02;;;;;;;;;;5096472;28;20035;-69
2021/01/15 11:07:50;;;;;;;41.22;20.50;;;;;;;;;;5096245;28;20461;-69
2021/01/15 11:10:16;;;;;;;34.45;18.15;;;;;;;;;;5096443;28;20104;-68
2021/01/15 11:12:42;;;;;;;38.03;19.70;;;;;;;;;;5096362;28;20024;-71
2021/01/15 11:15:09;;;;;;;33.95;17.58;;;;;;;;;;5095998;28;20016;-67
2021/01/15 11:17:41;;;;;;;37.75;19.55;;;;;;;;;;5091890;28;20020;-69
2021/01/15 11:20:08;;;;;;;28.42;17.58;;;;;;;;;;5091139;28;20013;-71
2021/01/15 11:22:35;;;;;;;34.78;19.70;;;;;;;;;;5094229;28;20073;-72
2021/01/15 11:25:01;;;;;;;44.25;21.58;;;;;;;;;;5095933;28;20015;-69
2021/01/15 11:27:27;;;;;;;45.08;23.83;;;;;;;;;;5094193;28;20024;-71
2021/01/15 11:29:55;;;;;;;46.50;21.88;;;;;;;;;;5094490;28;20107;-71
2021/01/15 11:32:21;;;;;;;;;;;;;;;;;;5096359;28;20446;-72
2021/01/15 11:34:47;;;;;;;39.83;18.63;;;;;;;;;;5094243;28;19908;-69
2021/01/15 11:37:15;;;;;;;44.67;21.52;;;;;;;;;;5095268;28;20018;-68
2021/01/15 11:39:41;;;;;;;49.85;24.17;;;;;;;;;;5094363;28;20028;-70
2021/01/15 11:42:07;;;;;;;43.70;21.10;;;;;;;;;;5096005;28;20016;-71
2021/01/15 11:44:33;;;;;;;39.88;18.83;;;;;;;;;;5093823;28;20070;-69
2021/01/15 11:46:59;;;;;;;47.03;21.25;;;;;;;;;;5095300;28;20020;-72
2021/01/15 11:49:26;;;;;;;39.35;18.23;;;;;;;;;;5095524;28;20111;-71
2021/01/15 11:51:59;;;;;;;37.25;16.67;;;;;;;;;;5095440;28;20027;-70
2021/01/15 11:54:26;;;;;;;37.25;20.30;;;;;;;;;;5095887;28;20028;-70
2021/01/15 11:56:52;;;;;;;29.55;15.90;;;;;;;;;;5093085;28;20092;-72
2021/01/15 11:59:18;;;;;;;28.40;14.65;;;;;;;;;;5094372;28;20069;-70
2021/01/15 12:01:44;;;;;;;54.70;22.83;;;;;;;;;;5095270;28;20028;-72
2021/01/15 12:04:10;;;;;;;33.17;15.75;;;;;;;;;;5108843;28;20016;-72
2021/01/15 12:06:36;;;;;;;36.63;16.45;;;;;;;;;;5093794;28;20052;-71
2021/01/15 12:09:03;;;;;;;34.30;15.57;;;;;;;;;;5093630;28;20024;-69
2021/01/15 12:11:30;;;;;;;31.33;15.10;;;;;;;;;;5095189;28;20098;-70
2021/01/15 12:13:56;;;;;;;29.80;14.68;;;;;;;;;;5094484;28;20016;-69
2021/01/15 12:16:23;;;;;;;24.83;13.57;;;;;;;;;;5094545;28;20149;-69
2021/01/15 12:18:49;;;;;;;41.13;18.48;;;;;;;;;;5095924;28;20051;-74
2021/01/15 12:21:19;;;;;;;29.55;13.20;;;;;;;;;;5095014;28;20024;-73
2021/01/15 12:23:45;;;;;;;28.52;15.00;;;;;;;;;;5095515;28;20024;-69
2021/01/15 12:26:12;;;;;;;38.03;19.77;;;;;;;;;;5092680;28;20035;-74
2021/01/15 12:28:38;;;;;;;33.55;16.83;;;;;;;;;;5093368;28;20028;-70
2021/01/15 12:31:04;;;;;;;35.25;17.13;;;;;;;;;;5093553;28;20444;-70
2021/01/15 12:33:30;;;;;;;45.92;20.63;;;;;;;;;;5093300;28;20019;-72
2021/01/15 12:35:56;;;;;;;30.75;18.45;;;;;;;;;;5095036;28;20113;-74
2021/01/15 12:38:23;;;;;;;36.22;18.23;;;;;;;;;;5094692;28;20024;-72
2021/01/15 12:40:54;;;;;;;41.45;17.90;;;;;;;;;;5091135;28;20063;-72
2021/01/15 12:43:20;;;;;;;39.95;19.48;;;;;;;;;;5094531;28;20048;-70
2021/01/15 12:45:50;;;;;;;66.88;30.15;;;;;;;;;;5092735;28;20027;-74
2021/01/15 12:48:17;;;;;;;53.35;27.45;;;;;;;;;;5092973;28;20503;-70
2021/01/15 12:50:44;;;;;;;33.65;15.68;;;;;;;;;;5094620;28;20062;-71
2021/01/15 12:53:10;;;;;;;54.25;22.05;;;;;;;;;;5092938;28;20017;-73
2021/01/15 12:55:37;;;;;;;47.83;22.90;;;;;;;;;;5092561;28;20020;-69
2021/01/15 12:58:03;;;;;;;53.17;22.40;;;;;;;;;;5093073;28;20020;-70
2021/01/15 13:00:30;;;;;;;43.10;20.30;;;;;;;;;;5093039;28;20024;-73
2021/01/15 13:02:56;;;;;;;94.10;37.97;;;;;;;;;;5093022;28;20140;-72
2021/01/15 13:05:23;;;;;;;55.65;26.33;;;;;;;;;;5095559;28;20043;-69
2021/01/15 13:07:49;;;;;;;41.47;21.25;;;;;;;;;;5094773;28;20032;-70
2021/01/15 13:10:15;;;;;;;40.00;17.27;;;;;;;;;;5094166;28;20024;-69
2021/01/15 13:12:42;;;;;;;42.60;22.17;;;;;;;;;;5094043;28;20020;-70
2021/01/15 13:15:09;;;;;;;33.60;16.25;;;;;;;;;;5095045;28;20028;-71
2021/01/15 13:17:55;;;;;;;27.00;14.73;;;;;;;;;;5093607;28;20456;-69
2021/01/15 13:20:22;;;;;;;24.98;13.27;;;;;;;;;;5093798;28;20414;-71
2021/01/15 13:22:56;;;;;;;27.48;14.55;;;;;;;;;;5094626;28;20480;-71
2021/01/15 13:25:23;;;;;;;25.38;11.55;;;;;;;;;;5080571;28;20154;-71
2021/01/15 13:27:51;;;;;;;21.25;9.23;;;;;;;;;;5083629;28;20080;-70
2021/01/15 13:30:17;;;;;;;;;;;;;;;;;;5093850;28;20483;-71
2021/01/15 13:32:43;;;;;;;24.35;11.07;;;;;;;;;;5094671;28;19903;-69
2021/01/15 13:35:09;;;;;;;30.45;13.75;;;;;;;;;;5093157;28;20032;-71
2021/01/15 13:37:37;;;;;;;34.67;17.63;;;;;;;;;;5094408;28;20028;-72
2021/01/15 13:40:04;;;;;;;41.72;17.40;;;;;;;;;;5095065;28;20018;-70
2021/01/15 13:42:30;;;;;;;43.13;18.88;;;;;;;;;;5092941;28;20020;-70
2021/01/15 13:44:57;;;;;;;46.90;19.63;;;;;;;;;;5094714;28;20020;-66
2021/01/15 13:47:23;;;;;;;31.20;15.02;;;;;;;;;;5094336;28;20035;-69
2021/01/15 13:49:49;;;;;;;62.13;24.17;;;;;;;;;;5092605;28;20074;-70
2021/01/15 13:52:15;;;;;;;48.88;24.40;;;;;;;;;;5094845;28;20066;-72
2021/01/15 13:54:41;;;;;;;53.92;23.55;;;;;;;;;;5094382;28;20055;-72
2021/01/15 13:57:07;;;;;;;33.13;17.58;;;;;;;;;;5092836;28;20461;-70
2021/01/15 13:59:33;;;;;;;25.63;14.40;;;;;;;;;;5092665;28;20008;-71
2021/01/15 14:01:59;;;;;;;25.88;13.55;;;;;;;;;;5092807;28;20035;-71
2021/01/15 14:04:26;;;;;;;40.40;17.45;;;;;;;;;;5094083;28;20027;-73
2021/01/15 14:06:52;;;;;;;35.67;19.10;;;;;;;;;;5093756;28;20043;-71
2021/01/15 14:09:18;;;;;;;39.60;18.40;;;;;;;;;;5092859;28;20046;-73
2021/01/15 14:11:44;;;;;;;36.13;17.48;;;;;;;;;;5092625;28;20020;-70
2021/01/15 14:14:10;;;;;;;28.40;16.63;;;;;;;;;;5093942;28;20091;-72
2021/01/15 14:16:36;;;;;;;31.25;15.18;;;;;;;;;;5092074;28;20030;-72
2021/01/15 14:19:02;;;;;;;27.52;16.63;;;;;;;;;;5092745;28;20026;-70
2021/01/15 14:21:31;;;;;;;32.55;18.35;;;;;;;;;;5092764;28;20483;-70
2021/01/15 14:23:58;;;;;;;32.08;17.02;;;;;;;;;;5093464;28;20077;-69
2021/01/15 14:26:24;;;;;;;24.65;12.32;;;;;;;;;;5094081;28;20330;-67